الصفحة الرئيسية
METAR-TAF:

METAR-TAF

مطار :

كوبه, اليابان

دائرة عرض: 34-37-58N, خط طول: 135-13-26E, ارتفاع: 7 متر

مراقبة الطقس الحالي

تاريخ ووقت الإصدار 1ساعة و 3 دقيقة قبل الساعة 02:00UTC
ريح 7 عقدة من الغرب/الجنوب الغربي
درجة الحرارة 26°درجة مئوية
الرطوبة 84%
ضغط 1010 hPa
الرؤية 10 كم أو أكثر
غيوم قليلة على ارتفاع 2000 قدم
غيوم متفرقة على ارتفاع 4000 قدم
غيوم مفككة على ارتفاع 15000 قدم
مطر خفيف,

METAR: RJBE 250200Z 25007KT 9999 -RA FEW020 SCT040 BKN150 26/23 Q1010

زمن: 12:03 (03:03 UTC)


TAF: مفقودة

أرصاد الطقس والتوقعات من أكثر من 4000 مطار (تقارير الطقس للمطار METAR والتنبؤ بالطقس بالمطارTAF).

المحطات المتاحة هي النقط الصفراء والحمراء على الخريطة.

حرك المؤشر فوق النقطة لمعرفة اسم المحطة.

ثم انقر لمعرفة أرصاد وتوقعات الطقس.

لتغيير الخارطة: اضغط على الأزرار الخضراء مع رمز الصليب الأسود للتكبير. على الزر الأخضر مع شرطة للتصغير، أو على الأسهم الخضراء للخرائط المجاورة.


METAR-TAF: